createdAt,value
2023-04-29T00:00:03.448Z,23.77
2023-04-29T00:03:29.163Z,25.80
2023-04-29T00:06:32.623Z,24.33
2023-04-29T00:09:35.210Z,25.77
2023-04-29T00:12:37.404Z,24.30
2023-04-29T00:15:41.982Z,24.67
2023-04-29T00:18:50.661Z,25.00
2023-04-29T00:21:54.828Z,27.27
2023-04-29T00:24:57.147Z,31.27
2023-04-29T00:28:02.477Z,27.63
2023-04-29T00:31:05.614Z,24.97
2023-04-29T00:34:11.048Z,29.60
2023-04-29T00:37:14.131Z,26.60
2023-04-29T00:40:17.460Z,28.47
2023-04-29T00:43:19.968Z,28.07
2023-04-29T00:46:28.280Z,25.17
2023-04-29T00:49:32.885Z,24.10
2023-04-29T00:52:38.232Z,22.70
2023-04-29T00:55:42.240Z,24.67
2023-04-29T00:58:54.615Z,27.70
2023-04-29T01:01:57.036Z,30.07
2023-04-29T01:05:05.811Z,23.97
2023-04-29T01:08:19.048Z,25.53
2023-04-29T01:11:26.221Z,28.73
2023-04-29T01:14:29.523Z,25.87
2023-04-29T01:17:40.332Z,26.20
2023-04-29T01:20:45.304Z,28.03
2023-04-29T01:23:56.457Z,27.67
2023-04-29T01:27:10.788Z,25.37
2023-04-29T01:30:33.405Z,25.03
2023-04-29T01:34:02.964Z,25.77
2023-04-29T01:37:37.899Z,26.40
2023-04-29T01:41:08.029Z,29.77
2023-04-29T01:44:22.503Z,25.07
2023-04-29T01:47:26.196Z,26.33
2023-04-29T01:50:33.003Z,24.70
2023-04-29T01:53:38.963Z,24.53
2023-04-29T01:56:45.133Z,24.50
2023-04-29T01:59:48.357Z,21.97
2023-04-29T02:02:51.151Z,24.13
2023-04-29T02:05:54.538Z,26.73
2023-04-29T02:08:58.147Z,24.30
2023-04-29T02:12:00.857Z,28.40
2023-04-29T02:15:07.165Z,29.17
2023-04-29T02:18:12.579Z,27.43
2023-04-29T02:21:16.094Z,36.67
2023-04-29T02:24:22.546Z,28.23
2023-04-29T02:27:26.878Z,28.13
2023-04-29T02:30:31.642Z,30.97
2023-04-29T02:33:36.874Z,27.43
2023-04-29T02:36:40.541Z,27.13
2023-04-29T02:39:44.570Z,29.83
2023-04-29T02:42:47.453Z,27.83
2023-04-29T02:45:50.955Z,43.13
2023-04-29T02:48:56.713Z,25.20
2023-04-29T02:52:02.178Z,26.97
2023-04-29T02:55:06.358Z,22.40
2023-04-29T02:58:13.147Z,27.93
2023-04-29T03:01:16.185Z,23.97
2023-04-29T03:04:25.426Z,23.93
2023-04-29T03:07:30.577Z,22.30
2023-04-29T03:10:37.188Z,24.57
2023-04-29T03:13:44.173Z,22.03
2023-04-29T03:16:47.239Z,21.40
2023-04-29T03:19:57.317Z,23.40
2023-04-29T03:23:00.991Z,21.77
2023-04-29T03:26:03.224Z,25.23
2023-04-29T03:29:08.799Z,22.37
2023-04-29T03:32:13.597Z,21.23
2023-04-29T03:35:18.884Z,20.37
2023-04-29T03:38:21.203Z,21.30
2023-04-29T03:41:35.856Z,19.97
2023-04-29T03:44:45.792Z,18.53
2023-04-29T03:48:00.228Z,21.00
2023-04-29T03:51:02.659Z,20.83
2023-04-29T03:54:13.079Z,22.83
2023-04-29T03:57:27.567Z,23.93
2023-04-29T04:00:41.187Z,19.73
2023-04-29T04:03:43.522Z,24.47
2023-04-29T04:06:51.203Z,20.30
2023-04-29T04:09:53.529Z,19.80
2023-04-29T04:12:59.905Z,20.40
2023-04-29T04:16:02.420Z,21.47
2023-04-29T04:19:06.202Z,24.03
2023-04-29T04:22:12.963Z,22.93
2023-04-29T04:25:16.517Z,21.67
2023-04-29T04:28:19.803Z,21.90
2023-04-29T04:31:22.879Z,24.83
2023-04-29T04:34:29.960Z,16.97
2023-04-29T04:37:34.898Z,19.03
2023-04-29T04:40:42.637Z,18.40
2023-04-29T04:43:48.760Z,20.77
2023-04-29T04:46:52.215Z,19.97
2023-04-29T04:49:54.732Z,20.57
2023-04-29T04:52:58.424Z,23.03
2023-04-29T04:56:26.162Z,18.57
2023-04-29T04:59:29.238Z,23.87
2023-04-29T05:02:31.684Z,19.40
2023-04-29T05:05:38.245Z,20.20
2023-04-29T05:08:41.417Z,21.90
2023-04-29T05:11:43.982Z,17.40
2023-04-29T05:14:46.568Z,19.30
2023-04-29T05:17:49.163Z,18.90
2023-04-29T05:20:51.333Z,20.70
2023-04-29T05:23:53.599Z,17.83
2023-04-29T05:27:11.255Z,24.43
2023-04-29T05:30:18.532Z,18.07
2023-04-29T05:38:41.833Z,16.93
2023-04-29T05:42:08.768Z,23.73
2023-04-29T05:45:10.914Z,18.77
2023-04-29T05:48:18.994Z,19.98
2023-04-29T05:51:25.174Z,16.45
2023-04-29T05:54:28.565Z,19.08
2023-04-29T05:57:31.036Z,18.05
2023-04-29T06:00:33.630Z,16.08
2023-04-29T06:03:36.613Z,14.35
2023-04-29T06:06:39.644Z,15.93
2023-04-29T06:09:42.885Z,18.90
2023-04-29T06:13:08.647Z,20.73
2023-04-29T06:16:29.800Z,19.75
2023-04-29T06:19:59.068Z,16.60
2023-04-29T06:23:01.032Z,17.58
2023-04-29T06:26:06.846Z,18.02
2023-04-29T06:30:19.731Z,24.88
2023-04-29T06:34:10.363Z,16.63
2023-04-29T06:42:17.470Z,17.65
2023-04-29T07:02:17.239Z,14.60
2023-04-29T07:05:31.800Z,12.60
2023-04-29T07:08:34.070Z,13.30
2023-04-29T07:12:24.127Z,12.88
2023-04-29T07:15:37.178Z,14.10
2023-04-29T07:19:22.582Z,10.55
2023-04-29T07:22:36.840Z,11.38
2023-04-29T07:31:26.215Z,13.55
2023-04-29T07:34:37.494Z,19.98
2023-04-29T07:47:03.497Z,13.73
2023-04-29T07:51:39.834Z,12.82
2023-04-29T08:04:48.350Z,12.80
2023-04-29T08:17:28.245Z,15.27
2023-04-29T08:20:30.604Z,12.48
2023-04-29T08:23:33.136Z,12.32
2023-04-29T08:26:35.548Z,12.57
2023-04-29T08:29:37.666Z,15.32
2023-04-29T08:32:40.002Z,11.23
2023-04-29T08:35:42.602Z,14.00
2023-04-29T08:38:44.987Z,11.85
2023-04-29T08:41:51.224Z,10.70
2023-04-29T08:44:54.287Z,11.68
2023-04-29T08:47:57.444Z,10.38
2023-04-29T08:51:00.712Z,19.85
2023-04-29T08:54:02.822Z,14.90
2023-04-29T08:57:06.277Z,10.80
2023-04-29T09:00:10.684Z,11.15
2023-04-29T09:03:21.118Z,10.80
2023-04-29T09:06:24.011Z,11.77
2023-04-29T09:09:26.785Z,10.18
2023-04-29T09:12:30.444Z,10.25
2023-04-29T09:15:41.381Z,15.88
2023-04-29T09:18:49.081Z,10.48
2023-04-29T09:21:57.737Z,12.93
2023-04-29T09:25:12.869Z,10.88
2023-04-29T09:28:19.342Z,11.02
2023-04-29T09:31:28.325Z,13.00
2023-04-29T09:34:32.553Z,12.18
2023-04-29T09:37:38.143Z,11.32
2023-04-29T09:40:57.575Z,10.57
2023-04-29T09:44:07.898Z,10.30
2023-04-29T09:47:10.855Z,12.75
2023-04-29T09:50:16.489Z,11.35
2023-04-29T09:53:29.807Z,9.18
2023-04-29T09:56:49.670Z,9.00
2023-04-29T09:59:51.920Z,9.23
2023-04-29T10:02:56.286Z,9.20
2023-04-29T10:06:00.217Z,9.52
2023-04-29T10:09:02.319Z,8.75
2023-04-29T10:12:07.440Z,8.48
2023-04-29T10:15:19.123Z,11.45
2023-04-29T10:18:26.333Z,9.43
2023-04-29T10:21:31.309Z,11.07
2023-04-29T10:24:37.737Z,11.35
2023-04-29T10:27:41.473Z,9.85
2023-04-29T10:30:57.159Z,9.90
2023-04-29T10:34:03.613Z,11.15
2023-04-29T10:37:10.307Z,11.65
2023-04-29T10:40:17.964Z,10.15
2023-04-29T10:43:24.988Z,15.48
2023-04-29T10:46:27.329Z,14.80
2023-04-29T10:49:35.155Z,9.15
2023-04-29T10:52:53.151Z,9.20
2023-04-29T10:56:04.834Z,8.75
2023-04-29T10:59:40.261Z,9.88
2023-04-29T11:02:46.014Z,11.15
2023-04-29T11:05:48.188Z,10.90
2023-04-29T11:09:01.927Z,12.35
2023-04-29T11:12:05.932Z,10.32
2023-04-29T11:15:11.113Z,11.82
2023-04-29T11:18:13.857Z,11.93
2023-04-29T11:21:16.219Z,12.13
2023-04-29T11:24:35.149Z,11.98
2023-04-29T11:27:40.712Z,12.63
2023-04-29T11:30:45.498Z,13.25
2023-04-29T11:34:08.271Z,12.68
2023-04-29T11:37:11.064Z,10.90
2023-04-29T11:40:17.509Z,13.15
2023-04-29T11:43:20.831Z,11.38
2023-04-29T11:46:32.283Z,11.80
2023-04-29T11:49:37.500Z,12.15
2023-04-29T11:53:04.905Z,12.07
2023-04-29T11:56:29.989Z,11.82
2023-04-29T11:59:47.535Z,15.05
2023-04-29T12:02:55.678Z,13.48
2023-04-29T12:05:57.998Z,13.38
2023-04-29T12:09:18.653Z,12.27
2023-04-29T12:12:57.294Z,12.65
2023-04-29T12:16:17.348Z,13.15
2023-04-29T12:19:19.600Z,12.73
2023-04-29T12:22:21.749Z,13.63
2023-04-29T12:29:37.404Z,14.68
2023-04-29T12:32:52.195Z,12.95
2023-04-29T12:36:13.264Z,12.85
2023-04-29T12:39:22.870Z,12.65
2023-04-29T12:43:29.378Z,11.45
2023-04-29T12:46:56.295Z,10.65
2023-04-29T12:58:09.350Z,8.32
2023-04-29T13:05:04.892Z,11.43
2023-04-29T13:12:48.524Z,10.65
2023-04-29T13:16:18.040Z,9.75
2023-04-29T13:19:46.834Z,9.13
2023-04-29T13:23:14.469Z,9.63
2023-04-29T13:26:37.475Z,9.88
2023-04-29T13:29:51.640Z,11.82
2023-04-29T13:33:12.401Z,9.35
2023-04-29T13:36:23.927Z,8.93
2023-04-29T13:39:38.241Z,7.20
2023-04-29T13:42:50.471Z,6.95
2023-04-29T13:45:58.723Z,6.97
2023-04-29T13:49:22.506Z,7.38
2023-04-29T13:59:31.661Z,1.73
2023-04-29T14:09:23.829Z,1.10
2023-04-29T14:12:34.058Z,2.28
2023-04-29T14:15:44.114Z,2.88
2023-04-29T14:18:48.952Z,4.97
2023-04-29T14:21:51.799Z,3.40
2023-04-29T14:24:54.378Z,3.88
2023-04-29T14:28:22.170Z,5.35
2023-04-29T14:31:43.442Z,4.20
2023-04-29T14:34:56.034Z,9.70
2023-04-29T14:38:07.999Z,18.95
2023-04-29T14:44:56.917Z,5.95
2023-04-29T14:48:20.185Z,5.15
2023-04-29T14:51:24.108Z,5.18
2023-04-29T14:54:27.214Z,5.90
2023-04-29T14:57:29.971Z,8.55
2023-04-29T15:00:32.035Z,7.82
2023-04-29T15:06:42.282Z,5.25
2023-04-29T15:09:45.820Z,6.60
2023-04-29T15:12:47.828Z,7.18
2023-04-29T15:15:50.900Z,12.00
2023-04-29T15:18:52.852Z,9.40
2023-04-29T15:21:55.131Z,63.45
2023-04-29T15:24:57.090Z,8.40
2023-04-29T15:27:59.514Z,7.78
2023-04-29T15:31:03.796Z,9.38
2023-04-29T15:34:06.600Z,19.17
2023-04-29T15:37:08.555Z,7.88
2023-04-29T15:40:11.285Z,6.45
2023-04-29T15:43:13.290Z,7.70
2023-04-29T15:46:32.467Z,8.32
2023-04-29T15:49:43.005Z,9.15
2023-04-29T15:52:45.921Z,9.43
2023-04-29T15:55:47.911Z,13.50
2023-04-29T15:58:50.364Z,11.93
2023-04-29T16:01:52.457Z,9.70
2023-04-29T16:04:54.875Z,8.02
2023-04-29T16:08:23.719Z,18.15
2023-04-29T16:11:26.393Z,31.63
2023-04-29T16:14:29.193Z,7.95
2023-04-29T16:17:34.620Z,8.10
2023-04-29T16:20:36.763Z,9.27
2023-04-29T16:23:39.022Z,8.02
2023-04-29T16:26:41.469Z,10.90
2023-04-29T16:29:45.274Z,6.43
2023-04-29T16:32:48.018Z,6.03
2023-04-29T16:35:50.423Z,6.68
2023-04-29T16:38:54.975Z,8.63
2023-04-29T16:41:59.546Z,8.87
2023-04-29T16:45:01.750Z,9.15
2023-04-29T16:48:04.378Z,10.17
2023-04-29T16:51:06.560Z,11.50
2023-04-29T16:54:08.906Z,11.47
2023-04-29T16:57:10.828Z,12.87
2023-04-29T17:00:13.372Z,12.67
2023-04-29T17:03:23.233Z,12.13
2023-04-29T17:06:32.314Z,13.47
2023-04-29T17:09:34.504Z,13.60
2023-04-29T17:12:37.016Z,14.60
2023-04-29T17:15:38.926Z,14.77
2023-04-29T17:18:47.141Z,15.43
2023-04-29T17:21:49.629Z,15.80
2023-04-29T17:24:52.200Z,14.93
2023-04-29T17:27:57.151Z,17.87
2023-04-29T17:31:06.417Z,15.43
2023-04-29T17:34:18.809Z,16.70
2023-04-29T17:37:25.765Z,15.93
2023-04-29T17:40:27.937Z,17.80
2023-04-29T17:43:41.941Z,21.03
2023-04-29T17:46:46.723Z,22.43
2023-04-29T17:50:03.071Z,23.00
2023-04-29T17:53:08.250Z,26.77
2023-04-29T17:56:10.794Z,25.37
2023-04-29T17:59:12.789Z,23.20
2023-04-29T18:02:15.169Z,24.95
2023-04-29T18:05:17.329Z,28.23
2023-04-29T18:08:20.212Z,29.47
2023-04-29T18:11:37.609Z,30.43
2023-04-29T18:14:46.273Z,32.90
2023-04-29T18:17:48.579Z,36.30
2023-04-29T18:20:50.947Z,38.33
2023-04-29T18:23:56.027Z,39.43
2023-04-29T18:27:04.587Z,40.17
2023-04-29T18:30:07.720Z,38.50
2023-04-29T18:33:10.045Z,43.70
2023-04-29T18:36:14.120Z,43.97
2023-04-29T18:39:17.017Z,43.87
2023-04-29T18:42:19.007Z,39.67
2023-04-29T18:45:21.230Z,39.67
2023-04-29T18:48:24.029Z,39.73
2023-04-29T18:51:26.412Z,34.40
2023-04-29T18:54:28.418Z,39.90
2023-04-29T18:57:30.844Z,31.23
2023-04-29T19:00:32.805Z,30.20
2023-04-29T19:03:35.495Z,28.50
2023-04-29T19:06:37.871Z,30.30
2023-04-29T19:09:40.242Z,26.07
2023-04-29T19:12:42.256Z,28.80
2023-04-29T19:15:44.633Z,24.07
2023-04-29T19:18:46.815Z,25.73
2023-04-29T19:21:49.127Z,21.37
2023-04-29T19:24:51.135Z,22.73
2023-04-29T19:27:53.702Z,22.23
2023-04-29T19:30:56.074Z,26.10
2023-04-29T19:33:58.334Z,22.57
2023-04-29T19:37:01.092Z,26.20
2023-04-29T19:40:04.127Z,25.03
2023-04-29T19:43:06.237Z,23.60
2023-04-29T19:46:08.749Z,22.37
2023-04-29T19:49:11.861Z,18.90
2023-04-29T19:52:14.270Z,19.70
2023-04-29T19:55:17.309Z,19.80
2023-04-29T19:58:20.094Z,17.47
2023-04-29T20:01:22.275Z,18.27
2023-04-29T20:04:25.467Z,15.83
2023-04-29T20:07:27.453Z,16.17
2023-04-29T20:10:30.185Z,14.50
2023-04-29T20:13:32.278Z,15.00
2023-04-29T20:16:35.690Z,17.13
2023-04-29T20:19:37.780Z,15.53
2023-04-29T20:22:40.104Z,14.37
2023-04-29T20:25:42.290Z,14.03
2023-04-29T20:28:44.672Z,13.13
2023-04-29T20:31:46.825Z,11.33
2023-04-29T20:34:49.314Z,11.80
2023-04-29T20:37:51.386Z,10.27
2023-04-29T20:40:54.337Z,11.77
2023-04-29T20:43:58.663Z,14.97
2023-04-29T20:47:01.154Z,13.20
2023-04-29T20:50:04.701Z,12.67
2023-04-29T20:53:07.172Z,11.53
2023-04-29T20:56:10.525Z,12.10
2023-04-29T20:59:13.274Z,10.93
2023-04-29T21:02:15.593Z,11.87
2023-04-29T21:05:18.002Z,13.77
2023-04-29T21:08:19.933Z,10.27
2023-04-29T21:11:22.343Z,12.20
2023-04-29T21:14:24.288Z,13.13
2023-04-29T21:17:26.754Z,11.73
2023-04-29T21:20:28.818Z,12.93
2023-04-29T21:23:33.436Z,9.83
2023-04-29T21:26:35.555Z,10.97
2023-04-29T21:29:41.012Z,13.17
2023-04-29T21:32:43.102Z,10.90
2023-04-29T21:35:50.218Z,11.87
2023-04-29T21:38:55.678Z,10.83
2023-04-29T21:42:03.063Z,9.27
2023-04-29T21:45:05.893Z,10.60
2023-04-29T21:48:20.552Z,9.87
2023-04-29T21:51:22.869Z,10.90
2023-04-29T21:54:25.103Z,9.93
2023-04-29T21:57:42.702Z,9.37
2023-04-29T22:00:51.231Z,11.97
2023-04-29T22:03:55.020Z,11.67
2023-04-29T22:06:58.811Z,11.70
2023-04-29T22:10:01.053Z,12.23
2023-04-29T22:13:03.306Z,8.73
2023-04-29T22:16:05.705Z,12.47
2023-04-29T22:19:08.578Z,10.57
2023-04-29T22:22:10.658Z,10.13
2023-04-29T22:25:12.927Z,15.57
2023-04-29T22:28:15.311Z,14.37
2023-04-29T22:31:17.566Z,11.83
2023-04-29T22:34:23.269Z,11.03
2023-04-29T22:37:25.717Z,12.73
2023-04-29T22:40:27.711Z,13.27
2023-04-29T22:43:33.091Z,12.13
2023-04-29T22:46:37.759Z,12.17
2023-04-29T22:49:40.992Z,11.93
2023-04-29T22:52:42.965Z,14.50
2023-04-29T22:55:56.319Z,12.03
2023-04-29T22:58:58.388Z,11.83
2023-04-29T23:02:03.190Z,12.67
2023-04-29T23:05:06.085Z,13.37
2023-04-29T23:08:08.646Z,12.27
2023-04-29T23:11:11.989Z,15.27
2023-04-29T23:14:14.261Z,15.37
2023-04-29T23:17:16.263Z,14.70
2023-04-29T23:20:18.617Z,11.57
2023-04-29T23:23:20.560Z,16.33
2023-04-29T23:26:23.372Z,15.43
2023-04-29T23:29:25.324Z,14.83
2023-04-29T23:32:27.725Z,15.17
2023-04-29T23:35:29.834Z,18.53
2023-04-29T23:38:32.101Z,16.53
2023-04-29T23:41:34.235Z,18.83
2023-04-29T23:44:36.491Z,27.03
2023-04-29T23:47:38.465Z,20.00
2023-04-29T23:50:40.847Z,18.80
2023-04-29T23:53:42.821Z,19.17
2023-04-29T23:56:45.206Z,20.57
2023-04-29T23:59:47.407Z,23.60
